Louisville, Nebraska
Current Conditions -  °F | °C
As of 10:55 PM on Saturday 25 Oct 2014 (Local Time) from KPMV Reporting Station
Clear Clear  
Wind Chill: 57°   Ceiling: Unl
Heat Index: 57°   Visibility: 10mi
Dew Point: 40°   Wind: 7mph
Humidity: 54%   Direction: 70°ENE
Pressure: 30.02"   Gusts: NA
Location:  41°N, 96.16°W
Report Text: KPMV 260355Z AUTO 07006KT 10SM CLR 14/05 A3002 RMK AO2 T01380047
Loading
Personal Weather Stations






























Interactive Weather Map New forecast layout! Learn more

10-Day Weather Forecast

Advertisements
Track Severe Weather on mobile